Terminal Aerodrome Forecast
Issued by NWS Wilmington, OH

Current Version | Previous Version | Graphics & Text | Print | Product List | Glossary On
Versions: 1 2 3 4 5 6 7 8 9 10 11 12 13 14 15 16 17 18 19 20
795
FTUS41 KILN 200504 AAC
TAFILN
TAF AMD
KILN 200504Z 2005/2024 VRB03KT 4SM BR SCT015
      TEMPO 2005/2009 1 1/2SM BR BKN015
     FM201000 VRB03KT 1SM BR BKN012
     FM201400 VRB04KT P6SM BKN015
     FM201700 24005KT P6SM SCT050=

USA.gov is the U.S. government's official web portal to all federal, state and local government web resources and services.